createdAt,value
2022-12-24T00:02:46.395Z,7.10
2022-12-24T00:07:53.808Z,6.90
2022-12-24T00:13:00.574Z,7.10
2022-12-24T00:18:07.839Z,7.00
2022-12-24T00:23:14.705Z,7.20
2022-12-24T00:28:21.547Z,7.30
2022-12-24T00:33:28.593Z,7.30
2022-12-24T00:38:35.595Z,7.30
2022-12-24T00:43:43.050Z,7.20
2022-12-24T00:48:51.020Z,7.00
2022-12-24T00:53:58.479Z,7.20
2022-12-24T00:59:05.233Z,7.10
2022-12-24T01:04:30.025Z,6.80
2022-12-24T01:09:37.013Z,6.80
2022-12-24T01:14:44.070Z,6.80
2022-12-24T01:19:51.057Z,6.90
2022-12-24T01:24:57.860Z,6.70
2022-12-24T01:30:05.486Z,6.80
2022-12-24T01:35:13.057Z,6.70
2022-12-24T01:40:22.165Z,6.80
2022-12-24T01:45:48.153Z,6.80
2022-12-24T01:51:03.559Z,6.70
2022-12-24T01:56:12.159Z,6.70
2022-12-24T02:01:20.211Z,7.20
2022-12-24T02:06:27.978Z,6.90
2022-12-24T02:11:36.278Z,6.80
2022-12-24T02:17:23.603Z,6.60
2022-12-24T02:22:40.666Z,7.00
2022-12-24T02:28:30.859Z,7.00
2022-12-24T02:34:02.789Z,6.90
2022-12-24T02:39:25.824Z,7.10
2022-12-24T02:44:37.158Z,7.10
2022-12-24T02:49:46.988Z,6.70
2022-12-24T02:54:53.688Z,6.70
2022-12-24T03:00:05.020Z,7.00
2022-12-24T03:05:21.763Z,6.90
2022-12-24T03:10:41.579Z,7.20
2022-12-24T03:15:49.608Z,7.30
2022-12-24T03:21:09.393Z,7.20
2022-12-24T03:26:19.471Z,6.90
2022-12-24T03:31:26.415Z,7.00
2022-12-24T03:36:33.092Z,6.90
2022-12-24T03:41:40.370Z,7.30
2022-12-24T03:46:47.048Z,7.00
2022-12-24T03:51:53.762Z,7.00
2022-12-24T03:57:00.456Z,6.90
2022-12-24T04:02:07.818Z,7.10
2022-12-24T04:07:15.212Z,7.00
2022-12-24T04:12:22.414Z,7.30
2022-12-24T04:17:29.224Z,6.80
2022-12-24T04:22:36.168Z,6.70
2022-12-24T04:27:42.916Z,6.90
2022-12-24T04:32:49.999Z,6.90
2022-12-24T04:37:56.991Z,7.20
2022-12-24T04:43:03.760Z,7.10
2022-12-24T04:48:10.660Z,7.10
2022-12-24T04:53:17.572Z,7.10
2022-12-24T04:58:24.358Z,7.10
2022-12-24T05:03:31.301Z,7.20
2022-12-24T05:08:39.020Z,7.30
2022-12-24T05:13:48.349Z,7.10
2022-12-24T05:18:56.057Z,7.00
2022-12-24T05:24:20.275Z,7.00
2022-12-24T05:29:27.428Z,7.10
2022-12-24T05:34:34.126Z,6.90
2022-12-24T05:39:41.096Z,6.80
2022-12-24T05:44:47.719Z,7.10
2022-12-24T05:49:54.620Z,7.20
2022-12-24T05:55:01.635Z,6.80
2022-12-24T06:00:11.864Z,6.70
2022-12-24T06:05:19.406Z,6.50
2022-12-24T06:10:26.139Z,6.50
2022-12-24T06:15:33.175Z,6.50
2022-12-24T06:20:40.027Z,6.50
2022-12-24T06:25:47.154Z,6.50
2022-12-24T06:31:00.302Z,6.90
2022-12-24T06:36:03.343Z,6.90
2022-12-24T06:41:11.164Z,6.80
2022-12-24T06:46:19.445Z,7.00
2022-12-24T06:51:26.193Z,7.20
2022-12-24T06:56:33.368Z,7.30
2022-12-24T07:01:40.159Z,7.70
2022-12-24T07:06:47.204Z,7.80
2022-12-24T07:11:53.938Z,7.50
2022-12-24T07:17:00.804Z,7.70
2022-12-24T07:22:11.842Z,7.80
2022-12-24T07:27:16.133Z,8.00
2022-12-24T07:32:23.102Z,8.10
2022-12-24T07:37:30.218Z,8.00
2022-12-24T07:42:37.085Z,8.00
2022-12-24T07:47:45.064Z,7.90
2022-12-24T07:52:51.726Z,8.10
2022-12-24T07:57:58.389Z,8.20
2022-12-24T08:03:05.550Z,8.30
2022-12-24T08:08:13.007Z,8.40
2022-12-24T08:13:20.295Z,8.30
2022-12-24T08:18:27.389Z,8.50
2022-12-24T08:23:34.018Z,8.60
2022-12-24T08:28:40.684Z,8.60
2022-12-24T08:33:47.663Z,8.70
2022-12-24T08:38:54.405Z,8.80
2022-12-24T08:44:01.547Z,8.70
2022-12-24T08:49:08.213Z,8.70
2022-12-24T08:54:14.964Z,8.70
2022-12-24T08:59:21.645Z,8.60
2022-12-24T09:04:29.498Z,8.50
2022-12-24T09:09:38.193Z,8.90
2022-12-24T09:14:45.454Z,8.50
2022-12-24T09:19:52.183Z,8.30
2022-12-24T09:24:59.155Z,8.50
2022-12-24T09:30:09.091Z,8.50
2022-12-24T09:35:16.293Z,8.60
2022-12-24T09:40:29.227Z,8.70
2022-12-24T09:45:39.908Z,8.60
2022-12-24T09:51:03.258Z,8.50
2022-12-24T09:56:26.055Z,8.70
2022-12-24T10:01:35.451Z,8.60
2022-12-24T10:06:58.737Z,8.70
2022-12-24T10:12:12.931Z,8.60
2022-12-24T10:17:52.394Z,8.80
2022-12-24T10:23:29.236Z,9.80
2022-12-24T10:28:55.452Z,10.00
2022-12-24T10:34:12.571Z,10.30
2022-12-24T10:39:25.585Z,10.60
2022-12-24T10:44:34.760Z,10.50
2022-12-24T10:50:06.812Z,10.50
2022-12-24T10:55:24.407Z,10.70
2022-12-24T11:00:35.874Z,11.50
2022-12-24T11:05:40.872Z,11.30
2022-12-24T11:11:04.019Z,10.90
2022-12-24T11:16:32.043Z,11.10
2022-12-24T11:21:42.445Z,10.90
2022-12-24T11:26:49.173Z,11.10
2022-12-24T11:31:59.614Z,11.10
2022-12-24T11:37:22.734Z,11.30
2022-12-24T11:42:41.513Z,11.40
2022-12-24T11:47:48.503Z,11.40
2022-12-24T11:53:06.016Z,11.30
2022-12-24T11:58:52.746Z,11.30
2022-12-24T12:04:16.497Z,11.50
2022-12-24T12:09:35.741Z,11.50
2022-12-24T12:14:59.063Z,11.70
2022-12-24T12:20:24.155Z,11.40
2022-12-24T12:25:58.918Z,11.40
2022-12-24T12:31:18.706Z,11.20
2022-12-24T12:36:32.480Z,11.30
2022-12-24T12:42:00.818Z,11.50
2022-12-24T12:47:26.757Z,11.80
2022-12-24T12:53:10.705Z,11.50
2022-12-24T12:58:30.663Z,11.20
2022-12-24T13:03:53.520Z,10.90
2022-12-24T13:09:20.889Z,11.10
2022-12-24T13:14:40.492Z,11.10
2022-12-24T13:20:13.844Z,11.00
2022-12-24T13:25:30.565Z,10.90
2022-12-24T13:30:40.433Z,10.80
2022-12-24T13:36:03.353Z,10.90
2022-12-24T13:41:40.630Z,11.00
2022-12-24T13:47:06.886Z,11.10
2022-12-24T13:52:19.689Z,10.90
2022-12-24T13:57:54.803Z,10.60
2022-12-24T14:03:17.761Z,10.60
2022-12-24T14:08:31.955Z,10.70
2022-12-24T14:13:49.176Z,10.70
2022-12-24T14:19:21.701Z,10.10
2022-12-24T14:24:37.446Z,9.80
2022-12-24T14:30:09.285Z,9.60
2022-12-24T14:35:22.419Z,9.80
2022-12-24T14:40:33.164Z,9.70
2022-12-24T14:46:08.133Z,9.40
2022-12-24T14:51:23.050Z,9.30
2022-12-24T14:56:29.542Z,9.20
2022-12-24T15:01:36.579Z,9.00
2022-12-24T15:06:56.418Z,8.90
2022-12-24T15:12:05.980Z,8.90
2022-12-24T15:17:16.608Z,8.80
2022-12-24T15:22:29.736Z,8.70
2022-12-24T15:27:40.072Z,8.50
2022-12-24T15:32:46.836Z,8.70
2022-12-24T15:37:53.616Z,9.00
2022-12-24T15:43:00.329Z,8.70
2022-12-24T15:48:14.164Z,8.70
2022-12-24T15:53:28.282Z,8.60
2022-12-24T15:58:39.261Z,8.60
2022-12-24T16:03:56.723Z,8.50
2022-12-24T16:09:03.483Z,8.10
2022-12-24T16:14:17.519Z,8.30
2022-12-24T16:19:40.342Z,8.40
2022-12-24T16:24:44.223Z,8.10
2022-12-24T16:29:51.134Z,7.90
2022-12-24T16:34:57.985Z,7.60
2022-12-24T16:40:04.851Z,7.50
2022-12-24T16:45:12.373Z,7.40
2022-12-24T16:50:20.337Z,7.40
2022-12-24T16:55:27.160Z,7.60
2022-12-24T17:00:34.196Z,7.60
2022-12-24T17:05:42.691Z,7.40
2022-12-24T17:10:55.098Z,7.20
2022-12-24T17:16:03.957Z,7.10
2022-12-24T17:21:13.535Z,7.00
2022-12-24T17:26:20.291Z,6.70
2022-12-24T17:31:27.918Z,6.80
2022-12-24T17:36:35.272Z,6.50
2022-12-24T17:41:42.360Z,6.70
2022-12-24T17:46:49.326Z,6.50
2022-12-24T17:51:56.693Z,6.50
2022-12-24T17:57:03.652Z,6.80
2022-12-24T18:02:13.798Z,6.60
2022-12-24T18:07:20.937Z,6.60
2022-12-24T18:12:27.914Z,6.60
2022-12-24T18:17:35.087Z,6.60
2022-12-24T18:22:41.849Z,6.60
2022-12-24T18:27:48.646Z,6.60
2022-12-24T18:32:55.435Z,6.80
2022-12-24T18:38:02.060Z,6.80
2022-12-24T18:43:08.800Z,6.50
2022-12-24T18:48:15.916Z,6.50
2022-12-24T18:53:22.815Z,6.60
2022-12-24T18:58:30.081Z,6.70
2022-12-24T19:03:37.123Z,6.50
2022-12-24T19:09:01.246Z,6.70
2022-12-24T19:13:58.447Z,6.90
2022-12-24T19:19:07.227Z,7.10
2022-12-24T19:24:14.730Z,7.20
2022-12-24T19:29:22.514Z,7.20
2022-12-24T19:34:29.425Z,7.20
2022-12-24T19:39:36.195Z,7.20
2022-12-24T19:44:42.970Z,7.10
2022-12-24T19:49:50.871Z,6.60
2022-12-24T19:54:57.964Z,6.60
2022-12-24T20:00:05.937Z,6.60
2022-12-24T20:05:12.915Z,6.70
2022-12-24T20:10:19.895Z,6.60
2022-12-24T20:15:27.096Z,6.70
2022-12-24T20:20:34.131Z,6.90
2022-12-24T20:25:40.983Z,6.80
2022-12-24T20:30:48.591Z,6.80
2022-12-24T20:35:55.773Z,6.90
2022-12-24T20:41:02.788Z,6.90
2022-12-24T20:46:10.618Z,6.90
2022-12-24T20:51:24.649Z,6.80
2022-12-24T20:56:32.419Z,6.90
2022-12-24T21:01:39.556Z,6.90
2022-12-24T21:06:46.487Z,7.00
2022-12-24T21:11:52.843Z,6.90
2022-12-24T21:17:00.008Z,7.00
2022-12-24T21:22:07.089Z,6.90
2022-12-24T21:27:13.969Z,6.90
2022-12-24T21:32:21.029Z,7.00
2022-12-24T21:37:28.088Z,7.00
2022-12-24T21:42:35.892Z,6.90
2022-12-24T21:47:44.295Z,7.10
2022-12-24T21:52:53.117Z,7.10
2022-12-24T21:58:00.101Z,7.10
2022-12-24T22:03:07.184Z,7.00
2022-12-24T22:08:31.435Z,7.00
2022-12-24T22:13:38.891Z,6.80
2022-12-24T22:18:45.853Z,6.90
2022-12-24T22:23:52.488Z,6.90
2022-12-24T22:28:59.191Z,6.90
2022-12-24T22:34:06.264Z,7.00
2022-12-24T22:39:13.011Z,6.90
2022-12-24T22:44:19.660Z,6.80
2022-12-24T22:49:26.452Z,6.90
2022-12-24T22:54:33.473Z,7.00
2022-12-24T22:59:40.635Z,7.00
2022-12-24T23:04:47.724Z,7.00
2022-12-24T23:09:57.430Z,6.90
2022-12-24T23:15:04.769Z,6.90
2022-12-24T23:20:12.972Z,6.90
2022-12-24T23:25:21.670Z,6.80
2022-12-24T23:30:28.515Z,6.80
2022-12-24T23:35:36.017Z,6.90
2022-12-24T23:40:45.024Z,6.90
2022-12-24T23:45:55.472Z,6.80
2022-12-24T23:51:12.501Z,6.80
2022-12-24T23:56:19.916Z,6.80
